Climatologie pour Saint-Brevin les Pins
Jour • Résumé pour juin 20, 2017 Système :  Métrique    Anglais   Mixte
« - 1 jour
+ 1 jour »
Jour Semaine Mois Année Personnalisé
  Maximum : Minimum : Moyenne :
Température sous abri : -17.8 °C -7.8 °C -5.4 °C
Point de rosée : -17.8 °C -8.3 °C -7.1 °C
Humidité : Humidity % 59 % 84 %
Vitesse du vent : 0 km/h 0 km/h 5.6 km/h
Rafale : 0 km/h - -
Direction :- - WSW
Pression : 0 hPa 34293.4 hPa -
Précipitations : 0 mm    
Historical Graphs
 
 
Tableau de données pour juin 20, 2017
Heure Tempé Pt rosée Pression Vent Vitesse Rafale Humidité Taux pluie (/hr) Soleil
-17.8 °C -17.8 °C 0 hPa Calm     Humidity % 0 mm SolarRadiationWatts/m^2 W/m2 Conditions
00:00 -6.2 °C -7.3 °C 34337.4 hPa Calm     88 % 0 mm 0 W/m2
00:05 -6.4 °C -7.4 °C 34337.4 hPa Calm     89 % 0 mm 0 W/m2
00:10 -6.6 °C -7.6 °C 34337.4 hPa Calm     89 % 0 mm 0 W/m2
00:15 -6.6 °C -7.6 °C 34337.4 hPa Calm     90 % 0 mm 0 W/m2
00:20 -6.6 °C -7.6 °C 34337.4 hPa Calm     90 % 0 mm 0 W/m2
00:25 -6.6 °C -7.4 °C 34337.4 hPa Calm     91 % 0 mm 0 W/m2
00:30 -6.6 °C -7.5 °C 34337.4 hPa Calm     90 % 0 mm 0 W/m2
00:35 -6.6 °C -7.6 °C 34337.4 hPa Calm     90 % 0 mm 0 W/m2
00:40 -6.6 °C -7.5 °C 34327.3 hPa Calm     90 % 0 mm 0 W/m2
00:45 -6.4 °C -7.3 °C 34327.3 hPa Calm     90 % 0 mm 0 W/m2
00:50 -6.6 °C -7.5 °C 34327.3 hPa Calm     90 % 0 mm 0 W/m2
00:55 -6.7 °C -7.6 °C 34327.3 hPa Calm     90 % 0 mm 0 W/m2
01:00 -6.8 °C -7.6 °C 34327.3 hPa Calm     91 % 0 mm 0 W/m2
01:05 -6.8 °C -7.6 °C 34327.3 hPa Calm     92 % 0 mm 0 W/m2
01:10 -6.6 °C -7.3 °C 34327.3 hPa Calm   2.6 km/h 92 % 0 mm 0 W/m2
01:15 -6.5 °C -7.3 °C 34327.3 hPa Calm   2.6 km/h 91 % 0 mm 0 W/m2
01:20 -6.6 °C -7.5 °C 34313.7 hPa Calm   2.6 km/h 90 % 0 mm 0 W/m2
01:25 -6.6 °C -7.5 °C 34313.7 hPa Calm   2.6 km/h 90 % 0 mm 0 W/m2
01:30 -6.5 °C -7.4 °C 34313.7 hPa Calm   2.6 km/h 90 % 0 mm 0 W/m2
01:35 -6.6 °C -7.5 °C 34313.7 hPa Calm     90 % 0 mm 0 W/m2
01:40 -6.7 °C -7.7 °C 34327.3 hPa Calm   2.6 km/h 90 % 0 mm 0 W/m2
01:45 -6.7 °C -7.7 °C 34327.3 hPa Calm   2.6 km/h 90 % 0 mm 0 W/m2
01:50 -6.9 °C -7.7 °C 34327.3 hPa Calm     91 % 0 mm 0 W/m2
01:55 -7.1 °C -7.9 °C 34327.3 hPa Calm     91 % 0 mm 0 W/m2
02:00 -7.1 °C -7.8 °C 34327.3 hPa Calm     93 % 0 mm 0 W/m2
02:05 -7.2 °C -7.8 °C 34327.3 hPa Calm     93 % 0 mm 0 W/m2
02:10 -7.2 °C -7.9 °C 34327.3 hPa Calm     93 % 0 mm 0 W/m2
02:15 -7.3 °C -7.9 °C 34313.7 hPa Calm     93 % 0 mm 0 W/m2
02:20 -7.3 °C -7.9 °C 34327.3 hPa Calm     94 % 0 mm 0 W/m2
02:25 -7.3 °C -8 °C 34313.7 hPa Calm     93 % 0 mm 0 W/m2
02:30 -7.3 °C -7.9 °C 34313.7 hPa Calm     94 % 0 mm 0 W/m2
02:35 -7.4 °C -8 °C 34313.7 hPa Calm     94 % 0 mm 0 W/m2
02:40 -7.4 °C -8 °C 34313.7 hPa Calm     94 % 0 mm 0 W/m2
02:45 -7.4 °C -7.9 °C 34313.7 hPa Calm     94 % 0 mm 0 W/m2
02:50 -7.3 °C -7.8 °C 34313.7 hPa Calm     95 % 0 mm 0 W/m2
02:55 -7.4 °C -7.9 °C 34303.6 hPa Calm     95 % 0 mm 0 W/m2
03:00 -7.4 °C -7.9 °C 34303.6 hPa Calm     95 % 0 mm 0 W/m2
03:05 -7.6 °C -8.1 °C 34303.6 hPa Calm     95 % 0 mm 0 W/m2
03:10 -7.7 °C -8.3 °C 34303.6 hPa Calm     94 % 0 mm 0 W/m2
03:15 -7.8 °C -8.2 °C 34303.6 hPa Calm     95 % 0 mm 0 W/m2
03:20 -7.7 °C -8.2 °C 34303.6 hPa Calm     95 % 0 mm 0 W/m2
03:25 -7.6 °C -8.1 °C 34303.6 hPa Calm   2.6 km/h 95 % 0 mm 0 W/m2
03:30 -7.6 °C -8 °C 34303.6 hPa Calm   2.6 km/h 95 % 0 mm 0 W/m2
03:35 -7.6 °C -8.1 °C 34303.6 hPa Calm     95 % 0 mm 0 W/m2
03:40 -7.7 °C -8.1 °C 34303.6 hPa Calm     95 % 0 mm 0 W/m2
03:45 -7.7 °C -8.1 °C 34303.6 hPa Calm     95 % 0 mm 0 W/m2
03:50 -7.7 °C -8 °C 34303.6 hPa Calm     96 % 0 mm 0 W/m2
03:55 -7.6 °C -8 °C 34303.6 hPa Calm     96 % 0 mm 0 W/m2
04:00 -7.6 °C -7.9 °C 34293.4 hPa Calm     96 % 0 mm 0 W/m2
04:05 -7.5 °C -7.8 °C 34293.4 hPa Calm     96 % 0 mm 0 W/m2
04:15 -7.4 °C -7.8 °C 34293.4 hPa Calm     96 % 0 mm 0 W/m2
04:20 -7.4 °C -7.7 °C 34303.6 hPa Calm     96 % 0 mm 0 W/m2
04:25 -7.6 °C -8 °C 34303.6 hPa Calm     95 % 0 mm 0 W/m2
04:30 -7.6 °C -7.9 °C 34303.6 hPa Calm     96 % 0 mm 0 W/m2
04:35 -7.6 °C -7.9 °C 34303.6 hPa Calm     96 % 0 mm 0 W/m2
04:40 -7.3 °C -7.7 °C 34303.6 hPa Calm     96 % 0 mm 0 W/m2
04:45 -7.4 °C -7.7 °C 34303.6 hPa Calm     96 % 0 mm 0 W/m2
04:50 -7.4 °C -7.8 °C 34303.6 hPa Calm     96 % 0 mm 0 W/m2
04:55 -7.5 °C -7.9 °C 34303.6 hPa Calm     95 % 0 mm 0 W/m2
05:00 -7.6 °C -7.9 °C 34303.6 hPa Calm     96 % 0 mm 0 W/m2
05:05 -7.6 °C -7.9 °C 34303.6 hPa Calm     96 % 0 mm 0 W/m2
05:10 -7.6 °C -8 °C 34303.6 hPa Calm     96 % 0 mm 0 W/m2
05:15 -7.6 °C -8 °C 34303.6 hPa Calm     96 % 0 mm 0 W/m2
05:20 -7.7 °C -8.1 °C 34303.6 hPa Calm     96 % 0 mm 0 W/m2
05:25 -7.7 °C -8.1 °C 34303.6 hPa Calm     96 % 0 mm 0 W/m2
05:30 -7.7 °C -8.1 °C 34303.6 hPa Calm     96 % 0 mm 0 W/m2
05:35 -7.7 °C -7.9 °C 34313.7 hPa Calm     97 % 0 mm 0 W/m2
05:40 -7.6 °C -7.9 °C 34313.7 hPa Calm     96 % 0 mm 0 W/m2
05:45 -7.6 °C -7.9 °C 34313.7 hPa Calm     96 % 0 mm 0 W/m2
05:50 -7.6 °C -8 °C 34313.7 hPa Calm     96 % 0 mm 0 W/m2
05:55 -7.7 °C -8 °C 34313.7 hPa Calm     96 % 0 mm 0 W/m2
06:00 -7.7 °C -8.1 °C 34313.7 hPa Calm     96 % 0 mm 0 W/m2
06:05 -7.6 °C -8 °C 34313.7 hPa Calm     96 % 0 mm 0 W/m2
06:10 -7.6 °C -8 °C 34313.7 hPa Calm     96 % 0 mm 0 W/m2
06:15 -7.6 °C -8 °C 34313.7 hPa Calm     96 % 0 mm 0 W/m2
06:20 -7.5 °C -7.8 °C 34313.7 hPa Calm     97 % 0 mm 5 W/m2
06:25 -7.6 °C -7.9 °C 34313.7 hPa Calm     96 % 0 mm 9 W/m2
06:30 -7.6 °C -8 °C 34313.7 hPa Calm     96 % 0 mm 12 W/m2
06:35 -7.7 °C -7.9 °C 34313.7 hPa Calm     97 % 0 mm 16 W/m2
06:40 -7.6 °C -7.9 °C 34313.7 hPa Calm   2.6 km/h 97 % 0 mm 19 W/m2
06:45 -7.4 °C -7.7 °C 34313.7 hPa Calm   5.1 km/h 97 % 0 mm 19 W/m2
06:50 -7.4 °C -7.7 °C 34313.7 hPa Calm   5.1 km/h 97 % 0 mm 23 W/m2
06:55 -7.4 °C -7.7 °C 34313.7 hPa Calm   2.6 km/h 97 % 0 mm 26 W/m2
07:00 -7.4 °C -7.7 °C 34313.7 hPa Calm   2.6 km/h 97 % 0 mm 32 W/m2
07:05 -7.4 °C -7.7 °C 34313.7 hPa Calm   2.6 km/h 97 % 0 mm 33 W/m2
07:10 -7.3 °C -7.6 °C 34313.7 hPa Calm   5.1 km/h 97 % 0 mm 37 W/m2
07:15 -7.3 °C -7.6 °C 34313.7 hPa Calm   5.1 km/h 97 % 0 mm 42 W/m2
07:20 -7.2 °C -7.4 °C 34327.3 hPa Calm   10.3 km/h 97 % 0 mm 46 W/m2
07:25 -7.1 °C -7.3 °C 34327.3 hPa Calm   10.3 km/h 97 % 0 mm 46 W/m2
07:30 -6.7 °C -6.9 °C 34327.3 hPa Calm   10.3 km/h 98 % 0 mm 60 W/m2
07:35 -6.6 °C -6.8 °C 34327.3 hPa SW 2.6 km/h 10.3 km/h 97 % 0 mm 69 W/m2
07:40 -6.4 °C -6.8 °C 34327.3 hPa Calm   10.3 km/h 96 % 0 mm 77 W/m2
07:45 -6.3 °C -6.7 °C 34327.3 hPa Calm   7.7 km/h 96 % 0 mm 88 W/m2
07:50 -6.2 °C -6.7 °C 34327.3 hPa Calm   7.7 km/h 95 % 0 mm 179 W/m2
07:55 -6.1 °C -6.6 °C 34327.3 hPa Calm   5.1 km/h 95 % 0 mm 216 W/m2
08:00 -5.9 °C -6.4 °C 34327.3 hPa Calm   5.1 km/h 94 % 0 mm 227 W/m2
08:05 -5.7 °C -6.4 °C 34327.3 hPa Calm   5.1 km/h 93 % 0 mm 237 W/m2
08:10 -5.6 °C -6.4 °C 34327.3 hPa SW 2.6 km/h 5.1 km/h 91 % 0 mm 188 W/m2
08:15 -5.6 °C -6.5 °C 34327.3 hPa Calm   5.1 km/h 90 % 0 mm 158 W/m2
08:20 -5.5 °C -6.5 °C 34327.3 hPa Calm   5.1 km/h 90 % 0 mm 174 W/m2
08:25 -5.4 °C -6.4 °C 34327.3 hPa Calm     90 % 0 mm 199 W/m2
08:30 -5.3 °C -6.3 °C 34327.3 hPa Calm     90 % 0 mm 209 W/m2
08:35 -5.3 °C -6.3 °C 34327.3 hPa Calm     90 % 0 mm 295 W/m2
08:40 -5.1 °C -5.9 °C 34327.3 hPa Calm     91 % 0 mm 330 W/m2
08:45 -4.8 °C -5.9 °C 34327.3 hPa Calm   7.7 km/h 89 % 0 mm 334 W/m2
08:50 -4.6 °C -5.8 °C 34327.3 hPa Calm   7.7 km/h 87 % 0 mm 373 W/m2
08:55 -4.3 °C -5.8 °C 34327.3 hPa Calm   7.7 km/h 85 % 0 mm 390 W/m2
09:00 -4.3 °C -5.8 °C 34327.3 hPa WSW 5.1 km/h 10.3 km/h 85 % 0 mm 415 W/m2
09:05 -4.2 °C -5.9 °C 34327.3 hPa WSW 2.6 km/h 10.3 km/h 83 % 0 mm 434 W/m2
09:10 -4.1 °C -5.9 °C 34327.3 hPa WSW 5.1 km/h 7.7 km/h 82 % 0 mm 394 W/m2
09:15 -4.1 °C -6.1 °C 34327.3 hPa West 5.1 km/h 7.7 km/h 80 % 0 mm 454 W/m2
09:20 -3.9 °C -6.1 °C 34327.3 hPa Calm   7.7 km/h 79 % 0 mm 403 W/m2
09:25 -3.8 °C -6 °C 34327.3 hPa Calm   7.7 km/h 79 % 0 mm 285 W/m2
09:30 -3.9 °C -6.2 °C 34327.3 hPa West 7.7 km/h 10.3 km/h 78 % 0 mm 352 W/m2
09:35 -3.8 °C -6.1 °C 34327.3 hPa WNW 2.6 km/h 10.3 km/h 78 % 0 mm 457 W/m2
09:40 -3.7 °C -6 °C 34327.3 hPa NNW 10.3 km/h 12.9 km/h 78 % 0 mm 494 W/m2
09:45 -3.6 °C -5.9 °C 34327.3 hPa Calm   12.9 km/h 78 % 0 mm 503 W/m2
09:50 -3.6 °C -6.1 °C 34327.3 hPa Calm   10.3 km/h 76 % 0 mm 520 W/m2
09:55 -3.3 °C -5.8 °C 34327.3 hPa WNW 2.6 km/h 10.3 km/h 76 % 0 mm 531 W/m2
10:00 -3 °C -5.6 °C 34327.3 hPa Calm   10.3 km/h 76 % 0 mm 548 W/m2
10:05 -2.9 °C -5.6 °C 34327.3 hPa NW 2.6 km/h 10.3 km/h 75 % 0 mm 561 W/m2
10:15 -2.4 °C -5.8 °C 34327.3 hPa NW 7.7 km/h 10.3 km/h 70 % 0 mm 592 W/m2
10:20 -2.4 °C -5.6 °C 34327.3 hPa WNW 2.6 km/h 10.3 km/h 71 % 0 mm 613 W/m2
10:25 -2.3 °C -5.6 °C 34327.3 hPa Calm   10.3 km/h 70 % 0 mm 519 W/m2
10:30 -2.2 °C -5.6 °C 34337.4 hPa WNW 5.1 km/h 7.7 km/h 70 % 0 mm 584 W/m2
10:35 -2.1 °C -5.7 °C 34337.4 hPa West 5.1 km/h 10.3 km/h 68 % 0 mm 647 W/m2
10:40 -2.4 °C -6.1 °C 34337.4 hPa WSW 7.7 km/h 10.3 km/h 68 % 0 mm 657 W/m2
10:45 -2.4 °C -5.6 °C 34337.4 hPa West 7.7 km/h 10.3 km/h 71 % 0 mm 621 W/m2
10:50 -2.3 °C -5.8 °C 34337.4 hPa WSW 7.7 km/h 10.3 km/h 69 % 0 mm 548 W/m2
10:55 -3.2 °C -6.9 °C 34337.4 hPa WSW 7.7 km/h 38.8 km/h 66 % 0 mm 506 W/m2
11:00 -3.8 °C -7 °C 34347.6 hPa Calm   38.8 km/h 70 % 0 mm 591 W/m2
11:05 -3.7 °C -6.7 °C 34347.6 hPa WSW 10.3 km/h 31.1 km/h 72 % 0 mm 640 W/m2
11:10 -3.4 °C -6.7 °C 34347.6 hPa West 7.7 km/h 20.8 km/h 70 % 0 mm 722 W/m2
11:15 -3.2 °C -7 °C 34337.4 hPa Calm   25.9 km/h 66 % 0 mm 605 W/m2
11:20 -3.2 °C -7 °C 34347.6 hPa Calm   25.9 km/h 66 % 0 mm 612 W/m2
11:25 -3.2 °C -6.8 °C 34347.6 hPa WSW 20.8 km/h 23.3 km/h 67 % 0 mm 608 W/m2
11:30 -3.7 °C -7.3 °C 34347.6 hPa WSW 12.9 km/h 31.1 km/h 67 % 0 mm 585 W/m2
11:35 -3.8 °C -7.2 °C 34347.6 hPa WSW 5.1 km/h 31.1 km/h 69 % 0 mm 814 W/m2
11:40 -3.1 °C -6.9 °C 34347.6 hPa West 7.7 km/h 20.8 km/h 66 % 0 mm 631 W/m2
11:45 -3.2 °C -7.1 °C 34361.1 hPa SSW 7.7 km/h 20.8 km/h 66 % 0 mm 524 W/m2
11:50 -3.7 °C -7.3 °C 34361.1 hPa West 12.9 km/h 28.5 km/h 68 % 0 mm 469 W/m2
11:55 -4 °C -7.1 °C 34361.1 hPa SW 7.7 km/h 28.5 km/h 71 % 0 mm 577 W/m2
12:00 -3.9 °C -7.2 °C 34361.1 hPa WSW 7.7 km/h 28.5 km/h 70 % 0 mm 552 W/m2
12:05 -3.8 °C -7.2 °C 34361.1 hPa West 12.9 km/h 28.5 km/h 69 % 0 mm 559 W/m2
12:10 -3.9 °C -7.3 °C 34361.1 hPa WSW 10.3 km/h 41.4 km/h 69 % 0 mm 703 W/m2
12:20 -3.7 °C -7.3 °C 34361.1 hPa WSW 12.9 km/h 28.5 km/h 67 % 0 mm 712 W/m2
12:25 -3.7 °C -7.2 °C 34361.1 hPa West 12.9 km/h 28.5 km/h 68 % 0 mm 708 W/m2
12:30 -3.6 °C -7.2 °C 34361.1 hPa SW 20.8 km/h 23.3 km/h 67 % 0 mm 745 W/m2
12:35 -3.4 °C -6.8 °C 34371.3 hPa WSW 10.3 km/h 25.9 km/h 69 % 0 mm 663 W/m2
12:40 -3.7 °C -7.2 °C 34371.3 hPa WSW 18.2 km/h 28.5 km/h 68 % 0 mm 626 W/m2
12:45 -3.5 °C -6.8 °C 34371.3 hPa WNW 12.9 km/h 28.5 km/h 70 % 0 mm 780 W/m2
12:50 -3.5 °C -6.9 °C 34371.3 hPa WSW 20.8 km/h 23.3 km/h 69 % 0 mm 837 W/m2
12:55 -3.4 °C -7.1 °C 34371.3 hPa West 12.9 km/h 25.9 km/h 67 % 0 mm 784 W/m2
13:00 -3.5 °C -7.2 °C 34371.3 hPa SW 25.9 km/h 25.9 km/h 67 % 0 mm 786 W/m2
13:05 -3.6 °C -6.9 °C 34371.3 hPa West 10.3 km/h 28.5 km/h 69 % 0 mm 800 W/m2
13:10 -3.2 °C -7.3 °C 34371.3 hPa West 15.6 km/h 28.5 km/h 64 % 0 mm 835 W/m2
13:15 -3.4 °C -7 °C 34371.3 hPa WSW 15.6 km/h 28.5 km/h 68 % 0 mm 830 W/m2
13:20 -3.7 °C -7.1 °C 34371.3 hPa West 12.9 km/h 28.5 km/h 69 % 0 mm 847 W/m2
13:25 -3.4 °C -6.5 °C 34371.3 hPa WNW 15.6 km/h 23.3 km/h 71 % 0 mm 800 W/m2
13:30 -3.1 °C -7 °C 34371.3 hPa WSW 18.2 km/h 28.5 km/h 65 % 0 mm 805 W/m2
13:35 -3.1 °C -6.6 °C 34371.3 hPa Calm   28.5 km/h 68 % 0 mm 838 W/m2
13:40 -2.9 °C -6.8 °C 34361.1 hPa WSW 7.7 km/h 20.8 km/h 65 % 0 mm 861 W/m2
13:45 -2.8 °C -6.9 °C 34361.1 hPa West 7.7 km/h 18.2 km/h 64 % 0 mm 860 W/m2
13:50 -2.7 °C -6.7 °C 34371.3 hPa SW 5.1 km/h 18.2 km/h 65 % 0 mm 874 W/m2
13:55 -2.7 °C -6.9 °C 34361.1 hPa West 2.6 km/h 18.2 km/h 63 % 0 mm 900 W/m2
14:00 -2.4 °C -7 °C 34361.1 hPa WNW 10.3 km/h 20.8 km/h 61 % 0 mm 863 W/m2
14:05 -2.7 °C -7.3 °C 34361.1 hPa SSW 12.9 km/h 25.9 km/h 61 % 0 mm 828 W/m2
14:10 -2.7 °C -6.7 °C 34361.1 hPa Calm   25.9 km/h 65 % 0 mm 904 W/m2
14:15 -2.4 °C -6.9 °C 34361.1 hPa SSW 5.1 km/h 20.8 km/h 62 % 0 mm 835 W/m2
14:20 -2.1 °C -6.4 °C 34361.1 hPa Calm   20.8 km/h 63 % 0 mm 884 W/m2
14:25 -2.2 °C -7.1 °C 34361.1 hPa WSW 5.1 km/h 23.3 km/h 59 % 0 mm 853 W/m2
14:30 -2.3 °C -6.8 °C 34361.1 hPa SW 7.7 km/h 23.3 km/h 61 % 0 mm 791 W/m2
14:35 -2.4 °C -6.9 °C 34361.1 hPa SW 12.9 km/h 18.2 km/h 61 % 0 mm 853 W/m2
14:40 -2.5 °C -7.1 °C 34361.1 hPa SW 15.6 km/h 23.3 km/h 61 % 0 mm 860 W/m2
14:45 -2.5 °C -6.9 °C 34361.1 hPa WNW 7.7 km/h 23.3 km/h 62 % 0 mm 861 W/m2
14:50 -2.8 °C -6.9 °C 34361.1 hPa West 18.2 km/h 31.1 km/h 64 % 0 mm 847 W/m2
14:55 -2.9 °C -6.7 °C 34361.1 hPa WNW 12.9 km/h 31.1 km/h 67 % 0 mm 838 W/m2
15:00 -2.9 °C -6.6 °C 34361.1 hPa WNW 15.6 km/h 31.1 km/h 67 % 0 mm 837 W/m2
15:05 -3 °C -7 °C 34371.3 hPa West 7.7 km/h 31.1 km/h 65 % 0 mm 831 W/m2
15:10 -3.2 °C -6.8 °C 34361.1 hPa West 12.9 km/h 28.5 km/h 67 % 0 mm 826 W/m2
15:15 -3.3 °C -6.8 °C 34361.1 hPa WSW 18.2 km/h 28.5 km/h 68 % 0 mm 823 W/m2
15:20 -3.4 °C -6.7 °C 34361.1 hPa WNW 12.9 km/h 28.5 km/h 70 % 0 mm 823 W/m2
15:25 -3.1 °C -6.7 °C 34361.1 hPa West 20.8 km/h 25.9 km/h 68 % 0 mm 812 W/m2
15:30 -3.2 °C -6.7 °C 34361.1 hPa WSW 7.7 km/h 25.9 km/h 69 % 0 mm 800 W/m2
15:35 -3.2 °C -6.7 °C 34361.1 hPa WSW 20.8 km/h 25.9 km/h 68 % 0 mm 788 W/m2
15:40 -3.1 °C -6.1 °C 34361.1 hPa SW 12.9 km/h 25.9 km/h 72 % 0 mm 791 W/m2
15:45 -3 °C -6.7 °C 34361.1 hPa WSW 10.3 km/h 25.9 km/h 67 % 0 mm 786 W/m2
15:50 -3.2 °C -6.6 °C 34361.1 hPa WNW 2.6 km/h 23.3 km/h 69 % 0 mm 779 W/m2
15:55 -2.9 °C -6.3 °C 34361.1 hPa West 25.9 km/h 25.9 km/h 69 % 0 mm 768 W/m2
16:00 -3.1 °C -6.4 °C 34361.1 hPa West 10.3 km/h 25.9 km/h 70 % 0 mm 765 W/m2
16:05 -2.9 °C -6.3 °C 34361.1 hPa West 15.6 km/h 25.9 km/h 69 % 0 mm 759 W/m2
16:10 -2.7 °C -5.9 °C 34361.1 hPa SSW 15.6 km/h 23.3 km/h 71 % 0 mm 747 W/m2
16:15 -2.9 °C -6.4 °C 34361.1 hPa West 12.9 km/h 20.8 km/h 68 % 0 mm 740 W/m2
16:20 -3.3 °C -6.6 °C 34361.1 hPa WNW 10.3 km/h 31.1 km/h 70 % 0 mm 726 W/m2
16:25 -3.2 °C -6.4 °C 34361.1 hPa West 5.1 km/h 31.1 km/h 71 % 0 mm 712 W/m2
16:30 -3.3 °C -6.2 °C 34347.6 hPa WSW 18.2 km/h 25.9 km/h 73 % 0 mm 671 W/m2
16:35 -3.5 °C -6.6 °C 34361.1 hPa WSW 20.8 km/h 28.5 km/h 72 % 0 mm 650 W/m2
16:40 -3.8 °C -6.5 °C 34347.6 hPa SW 12.9 km/h 28.5 km/h 74 % 0 mm 626 W/m2
16:45 -3.6 °C -6.4 °C 34347.6 hPa WSW 23.3 km/h 25.9 km/h 74 % 0 mm 708 W/m2
16:50 -3.5 °C -6.3 °C 34347.6 hPa WSW 12.9 km/h 25.9 km/h 74 % 0 mm 712 W/m2
16:55 -3.6 °C -6.4 °C 34347.6 hPa WSW 15.6 km/h 28.5 km/h 74 % 0 mm 628 W/m2
17:00 -3.6 °C -6.6 °C 34347.6 hPa West 7.7 km/h 28.5 km/h 72 % 0 mm 619 W/m2
17:05 -3.5 °C -6.4 °C 34347.6 hPa WSW 5.1 km/h 25.9 km/h 73 % 0 mm 575 W/m2
17:10 -3.7 °C -6.4 °C 34347.6 hPa SW 12.9 km/h 28.5 km/h 75 % 0 mm 629 W/m2
17:15 -3.9 °C -6.4 °C 34347.6 hPa NW 10.3 km/h 31.1 km/h 76 % 0 mm 615 W/m2
17:20 -3.7 °C -6.1 °C 34347.6 hPa WNW 10.3 km/h 31.1 km/h 77 % 0 mm 615 W/m2
17:25 -3.6 °C -6.4 °C 34347.6 hPa West 18.2 km/h 25.9 km/h 74 % 0 mm 585 W/m2
17:30 -3.8 °C -6.4 °C 34347.6 hPa WSW 12.9 km/h 23.3 km/h 75 % 0 mm 582 W/m2
17:35 -3.8 °C -6.3 °C 34337.4 hPa WSW 15.6 km/h 25.9 km/h 77 % 0 mm 504 W/m2
17:45 -4.1 °C -6.4 °C 34337.4 hPa WSW 15.6 km/h 25.9 km/h 78 % 0 mm 462 W/m2
17:50 -4.1 °C -6.1 °C 34337.4 hPa WSW 7.7 km/h 25.9 km/h 80 % 0 mm 515 W/m2
17:55 -4 °C -6.2 °C 34337.4 hPa SW 10.3 km/h 23.3 km/h 79 % 0 mm 504 W/m2
18:00 -3.9 °C -6.2 °C 34337.4 hPa NW 7.7 km/h 23.3 km/h 78 % 0 mm 446 W/m2
18:05 -4.1 °C -6.2 °C 34337.4 hPa SSW 2.6 km/h 20.8 km/h 79 % 0 mm 476 W/m2
18:10 -4 °C -6.1 °C 34337.4 hPa WNW 10.3 km/h 20.8 km/h 80 % 0 mm 522 W/m2
18:15 -4.1 °C -6.2 °C 34327.3 hPa WSW 7.7 km/h 23.3 km/h 79 % 0 mm 501 W/m2
18:20 -3.9 °C -6 °C 34337.4 hPa SW 10.3 km/h 23.3 km/h 80 % 0 mm 485 W/m2
18:25 -4.1 °C -5.9 °C 34337.4 hPa WSW 10.3 km/h 23.3 km/h 82 % 0 mm 471 W/m2
18:30 -4 °C -5.9 °C 34337.4 hPa WSW 12.9 km/h 23.3 km/h 81 % 0 mm 448 W/m2
18:35 -4.2 °C -5.9 °C 34337.4 hPa NW 12.9 km/h 23.3 km/h 83 % 0 mm 438 W/m2
18:40 -4.3 °C -5.9 °C 34337.4 hPa SW 20.8 km/h 23.3 km/h 83 % 0 mm 424 W/m2
18:45 -4.4 °C -6.1 °C 34337.4 hPa WSW 10.3 km/h 28.5 km/h 83 % 0 mm 394 W/m2
18:50 -4.4 °C -6 °C 34337.4 hPa West 10.3 km/h 28.5 km/h 84 % 0 mm 348 W/m2
18:55 -4.7 °C -6.2 °C 34337.4 hPa West 18.2 km/h 31.1 km/h 85 % 0 mm 385 W/m2
19:00 -4.7 °C -6.1 °C 34337.4 hPa WSW 12.9 km/h 31.1 km/h 86 % 0 mm 348 W/m2
19:05 -4.7 °C -6.1 °C 34337.4 hPa WSW 10.3 km/h 31.1 km/h 86 % 0 mm 339 W/m2
19:10 -4.8 °C -6.1 °C 34337.4 hPa WSW 10.3 km/h 25.9 km/h 86 % 0 mm 332 W/m2
19:15 -4.8 °C -6.2 °C 34337.4 hPa West 12.9 km/h 25.9 km/h 86 % 0 mm 318 W/m2
19:20 -4.9 °C -6.2 °C 34337.4 hPa WNW 7.7 km/h 25.9 km/h 87 % 0 mm 304 W/m2
19:25 -4.9 °C -6.2 °C 34337.4 hPa West 15.6 km/h 28.5 km/h 87 % 0 mm 299 W/m2
19:30 -5.1 °C -6.3 °C 34337.4 hPa WSW 12.9 km/h 28.5 km/h 87 % 0 mm 299 W/m2
19:35 -5.1 °C -6.3 °C 34337.4 hPa WSW 18.2 km/h 23.3 km/h 87 % 0 mm 167 W/m2
19:40 -5.3 °C -6.3 °C 34337.4 hPa WSW 12.9 km/h 28.5 km/h 89 % 0 mm 146 W/m2
19:45 -5.3 °C -6.3 °C 34337.4 hPa WNW 12.9 km/h 28.5 km/h 89 % 0 mm 130 W/m2
19:50 -5.4 °C -6.4 °C 34347.6 hPa SW 5.1 km/h 23.3 km/h 89 % 0 mm 114 W/m2
19:55 -5.6 °C -6.7 °C 34337.4 hPa WSW 7.7 km/h 20.8 km/h 89 % 0 mm 113 W/m2
20:00 -5.7 °C -6.7 °C 34337.4 hPa WSW 18.2 km/h 18.2 km/h 90 % 0 mm 86 W/m2
20:05 -6 °C -6.8 °C 34337.4 hPa WSW 15.6 km/h 23.3 km/h 91 % 0 mm 91 W/m2
20:10 -6.1 °C -6.8 °C 34337.4 hPa WSW 12.9 km/h 23.3 km/h 92 % 0 mm 88 W/m2
20:15 -6.2 °C -6.8 °C 34337.4 hPa WSW 10.3 km/h 20.8 km/h 93 % 0 mm 74 W/m2
20:20 -6.2 °C -6.8 °C 34337.4 hPa West 2.6 km/h 18.2 km/h 94 % 0 mm 63 W/m2
20:25 -6.3 °C -6.8 °C 34337.4 hPa SW 5.1 km/h 18.2 km/h 94 % 0 mm 54 W/m2
20:35 -6.4 °C -6.9 °C 34337.4 hPa WSW 7.7 km/h 15.6 km/h 95 % 0 mm 62 W/m2
20:40 -6.4 °C -6.9 °C 34337.4 hPa Calm   12.9 km/h 95 % 0 mm 58 W/m2
20:45 -6.4 °C -6.9 °C 34337.4 hPa Calm   10.3 km/h 95 % 0 mm 56 W/m2
20:50 -6.5 °C -6.9 °C 34337.4 hPa WSW 5.1 km/h 18.2 km/h 95 % 0 mm 42 W/m2
20:55 -6.6 °C -7.1 °C 34337.4 hPa WSW 7.7 km/h 18.2 km/h 95 % 0 mm 40 W/m2
21:00 -6.6 °C -6.9 °C 34347.6 hPa WSW 2.6 km/h 12.9 km/h 96 % 0 mm 37 W/m2
21:05 -6.7 °C -7.1 °C 34347.6 hPa WSW 12.9 km/h 12.9 km/h 95 % 0 mm 30 W/m2
21:10 -6.7 °C -7.1 °C 34347.6 hPa West 12.9 km/h 12.9 km/h 96 % 0 mm 25 W/m2
21:15 -6.8 °C -7.1 °C 34347.6 hPa West 7.7 km/h 15.6 km/h 96 % 0 mm 21 W/m2
21:20 -6.8 °C -7.2 °C 34347.6 hPa WSW 7.7 km/h 15.6 km/h 96 % 0 mm 23 W/m2
21:25 -7 °C -7.3 °C 34347.6 hPa SW 5.1 km/h 23.3 km/h 96 % 0 mm 19 W/m2
21:30 -7 °C -7.4 °C 34347.6 hPa Calm   23.3 km/h 96 % 0 mm 18 W/m2
21:35 -7.1 °C -7.4 °C 34347.6 hPa WSW 5.1 km/h 20.8 km/h 96 % 0 mm 12 W/m2
21:40 -7 °C -7.4 °C 34347.6 hPa WNW 5.1 km/h 15.6 km/h 96 % 0 mm 11 W/m2
21:45 -7.1 °C -7.3 °C 34347.6 hPa West 5.1 km/h 15.6 km/h 97 % 0 mm 9 W/m2
21:50 -7.1 °C -7.3 °C 34347.6 hPa West 7.7 km/h 18.2 km/h 97 % 0 mm 5 W/m2
21:55 -7.1 °C -7.3 °C 34347.6 hPa West 12.9 km/h 20.8 km/h 97 % 0 mm 0 W/m2
22:00 -7.1 °C -7.3 °C 34347.6 hPa Calm   20.8 km/h 97 % 0 mm 0 W/m2
22:05 -7.1 °C -7.3 °C 34347.6 hPa WSW 10.3 km/h 15.6 km/h 97 % 0 mm 0 W/m2
22:10 -7.1 °C -7.4 °C 34347.6 hPa Calm   15.6 km/h 97 % 0 mm 0 W/m2
22:15 -7.1 °C -7.3 °C 34347.6 hPa SW 2.6 km/h 15.6 km/h 97 % 0 mm 0 W/m2
22:20 -7.1 °C -7.4 °C 34347.6 hPa Calm   20.8 km/h 97 % 0 mm 0 W/m2
22:25 -7.2 °C -7.4 °C 34347.6 hPa Calm   20.8 km/h 97 % 0 mm 0 W/m2
22:30 -7.1 °C -7.4 °C 34361.1 hPa WSW 10.3 km/h 18.2 km/h 97 % 0 mm 0 W/m2
22:35 -7.2 °C -7.4 °C 34361.1 hPa SW 12.9 km/h 18.2 km/h 97 % 0 mm 0 W/m2
22:40 -7.2 °C -7.5 °C 34361.1 hPa West 5.1 km/h 18.2 km/h 97 % 0 mm 0 W/m2
22:45 -7.2 °C -7.5 °C 34361.1 hPa WSW 7.7 km/h 18.2 km/h 97 % 0 mm 0 W/m2
22:50 -7.2 °C -7.5 °C 34361.1 hPa WSW 5.1 km/h 10.3 km/h 97 % 0 mm 0 W/m2
22:55 -7.2 °C -7.5 °C 34361.1 hPa WSW 2.6 km/h 12.9 km/h 97 % 0 mm 0 W/m2
23:00 -7.2 °C -7.4 °C 34361.1 hPa Calm   12.9 km/h 97 % 0 mm 0 W/m2
23:05 -7.3 °C -7.6 °C 34361.1 hPa WNW 5.1 km/h 15.6 km/h 97 % 0 mm 0 W/m2
23:10 -7.3 °C -7.6 °C 34361.1 hPa WSW 7.7 km/h 15.6 km/h 97 % 0 mm 0 W/m2
23:15 -7.3 °C -7.6 °C 34361.1 hPa West 7.7 km/h 15.6 km/h 97 % 0 mm 0 W/m2
23:20 -7.3 °C -7.6 °C 34361.1 hPa WSW 10.3 km/h 18.2 km/h 97 % 0 mm 0 W/m2
23:25 -7.3 °C -7.6 °C 34361.1 hPa SSW 5.1 km/h 18.2 km/h 97 % 0 mm 0 W/m2
23:30 -7.3 °C -7.6 °C 34361.1 hPa Calm   18.2 km/h 97 % 0 mm 0 W/m2
23:35 -7.3 °C -7.6 °C 34361.1 hPa WSW 7.7 km/h 15.6 km/h 97 % 0 mm 0 W/m2
23:40 -7.3 °C -7.6 °C 34361.1 hPa Calm   12.9 km/h 97 % 0 mm 0 W/m2
23:45 -7.3 °C -7.6 °C 34361.1 hPa Calm   12.9 km/h 97 % 0 mm 0 W/m2
23:50 -7.4 °C -7.7 °C 34361.1 hPa Calm   15.6 km/h 97 % 0 mm 0 W/m2
23:55 -7.4 °C -7.7 °C 34361.1 hPa Calm   15.6 km/h 97 % 0 mm 0 W/m2
Avec l'autorisation de Weather Underground - 1.75 mb